ADDS METAR Data INFO
IDs: Format: Raw Decoded Include TAF

Data at: 1416 UTC 12 Dec 2017

KIZA 121355Z AUTO 00000KT 10SM CLR 01/M10 A3021 RMK AO2
KIZA 121335Z AUTO 00000KT 10SM CLR 01/M11 A3021 RMK AO2
KIZA 121315Z AUTO 00000KT 10SM CLR 01/M10 A3021 RMK AO2
KIZA 121255Z AUTO 00000KT 10SM CLR 02/M11 A3022 RMK AO2
KIZA 121235Z AUTO 00000KT 10SM SCT055 01/M10 A3022 RMK AO2
KIZA 121215Z AUTO 00000KT 10SM SCT055 SCT070 02/M10 A3022 RMK AO2
KIZA 121155Z AUTO 00000KT 10SM BKN075 03/M09 A3023 RMK AO2
KIZA 121135Z AUTO 00000KT 10SM BKN075 03/M08 A3023 RMK AO2
KIZA 121115Z AUTO 00000KT 7SM CLR 03/M08 A3023 RMK AO2
KIZA 121055Z AUTO 00000KT 10SM CLR 04/M08 A3023 RMK AO2
KIZA 121035Z AUTO 00000KT 10SM CLR 03/M08 A3023 RMK AO2
KIZA 121015Z AUTO 00000KT 7SM CLR 05/M09 A3023 RMK AO2
KIZA 120955Z AUTO 00000KT 10SM CLR 04/M08 A3023 RMK AO2
KIZA 120935Z AUTO 00000KT 10SM CLR 05/M08 A3023 RMK AO2
KIZA 120915Z AUTO 00000KT 7SM CLR 06/M08 A3023 RMK AO2
KIZA 120855Z AUTO 08003KT 10SM CLR 07/M08 A3023 RMK AO2
KIZA 120835Z AUTO 00000KT 10SM CLR 05/M07 A3024 RMK AO2
KIZA 120815Z AUTO 00000KT 10SM CLR 05/M06 A3024 RMK AO2
KIZA 120755Z AUTO 00000KT 10SM CLR 05/M08 A3024 RMK AO2
KIZA 120735Z AUTO 00000KT 10SM CLR 06/M08 A3024 RMK AO2
KIZA 120715Z AUTO 03003KT 10SM SCT055 06/M07 A3024 RMK AO2
KIZA 120655Z AUTO 00000KT 10SM BKN050 BKN065 BKN085 07/M08 A3024 RMK AO2
KIZA 120635Z AUTO 00000KT 10SM BKN050 OVC065 07/M07 A3025 RMK AO2
KIZA 120615Z AUTO 00000KT 10SM BKN050 OVC065 07/M07 A3025 RMK AO2
KIZA 120555Z AUTO 00000KT 10SM BKN050 OVC065 07/M06 A3024 RMK AO2
KIZA 120535Z AUTO 00000KT 10SM SCT050 BKN060 BKN110 08/M07 A3024 RMK AO2
KIZA 120515Z AUTO 05004KT 10SM CLR 08/M08 A3024 RMK AO2
KIZA 120455Z AUTO 07005KT 10SM CLR 10/M08 A3024 RMK AO2
KIZA 120435Z AUTO 05003KT 7SM CLR 10/M08 A3024 RMK AO2
KIZA 120415Z AUTO 04003KT 10SM SCT100 10/M09 A3023 RMK AO2
KIZA 120355Z AUTO 06005KT 10SM SCT100 10/M08 A3024 RMK AO2
KIZA 120335Z AUTO 05005KT 10SM SCT090 11/M06 A3023 RMK AO2
KIZA 120315Z AUTO 03003KT 10SM BKN090 11/M05 A3023 RMK AO2
KIZA 120255Z AUTO 03003KT 10SM OVC090 12/M05 A3023 RMK AO2
KIZA 120235Z AUTO 00000KT 7SM BKN090 12/M05 A3023 RMK AO2
KIZA 120215Z AUTO 00000KT 10SM SCT090 13/M06 A3022 RMK AO2
KIZA 120155Z AUTO 00000KT 10SM CLR 14/M07 A3022 RMK AO2
KIZA 120135Z AUTO 00000KT 10SM CLR 17/M06 A3021 RMK AO2
KIZA 120115Z AUTO 00000KT 10SM CLR 19/M06 A3020 RMK AO2
KIZA 120055Z AUTO 24003KT 10SM CLR 20/M08 A3020 RMK AO2
KIZA 120035Z AUTO 00000KT 7SM CLR 21/M06 A3020 RMK AO2
KIZA 120015Z AUTO 00000KT 10SM CLR 22/M08 A3019 RMK AO2
KIZA 112355Z AUTO 00000KT 10SM CLR 23/M07 A3019 RMK AO2
KIZA 112335Z AUTO 00000KT 10SM CLR 23/M07 A3019 RMK AO2
KIZA 112315Z AUTO 00000KT 7SM CLR 24/M06 A3018 RMK AO2
KIZA 112255Z AUTO 00000KT 7SM CLR 25/M07 A3018 RMK AO2
KIZA 112235Z AUTO 25004KT 7SM CLR 25/M08 A3018 RMK AO2
KIZA 112215Z AUTO 28004KT 10SM CLR 25/M08 A3018 RMK AO2
KIZA 112155Z AUTO 00000KT 10SM CLR 24/M08 A3019 RMK AO2
KIZA 112135Z AUTO 00000KT 10SM CLR 24/M07 A3019 RMK AO2
KIZA 112115Z AUTO 00000KT 10SM CLR 23/M08 A3019 RMK AO2
KIZA 112055Z AUTO 00000KT 10SM CLR 22/M09 A3020 RMK AO2
KIZA 112035Z AUTO 00000KT 10SM CLR 21/M07 A3020 RMK AO2
KIZA 112015Z AUTO 00000KT 7SM CLR 20/M07 A3021 RMK AO2
KIZA 111955Z AUTO 00000KT 10SM CLR 19/M08 A3022 RMK AO2
KIZA 111935Z AUTO 00000KT 10SM CLR 17/M08 A3023 RMK AO2
KIZA 111915Z AUTO 00000KT 10SM CLR 16/M09 A3023 RMK AO2
KIZA 111855Z AUTO 00000KT 7SM CLR 15/M08 A3024 RMK AO2
KIZA 111835Z AUTO 00000KT 7SM CLR 12/M06 A3025 RMK AO2
KIZA 111815Z AUTO 00000KT 7SM CLR 11/M06 A3025 RMK AO2
KIZA 111755Z AUTO 00000KT 7SM CLR 10/M06 A3025 RMK AO2
KIZA 111735Z AUTO 00000KT 7SM CLR 12/M07 A3025 RMK AO2
KIZA 111715Z AUTO 00000KT 10SM CLR 10/M08 A3025 RMK AO2
KIZA 111655Z AUTO 00000KT 10SM CLR 08/M08 A3025 RMK AO2
KIZA 111635Z AUTO 00000KT 10SM CLR 06/M08 A3025 RMK AO2
KIZA 111615Z AUTO 00000KT 10SM CLR 04/M07 A3024 RMK AO2
KIZA 111555Z AUTO 00000KT 10SM CLR 04/M08 A3024 RMK AO2
KIZA 111535Z AUTO 00000KT 10SM CLR 05/M10 A3024 RMK AO2
KIZA 111515Z AUTO 00000KT 10SM CLR 03/M07 A3024 RMK AO2
KIZA 111455Z AUTO 00000KT 10SM CLR 06/M08 A3023 RMK AO2
KIZA 111435Z AUTO 00000KT 10SM CLR 04/M08 A3023 RMK AO2
KIZA 111415Z AUTO 00000KT 10SM SCT060 05/M08 A3022 RMK AO2
KIZA 111355Z AUTO 00000KT 10SM BKN060 BKN075 05/M07 A3021 RMK AO2
KIZA 111335Z AUTO 00000KT 10SM BKN060 OVC075 04/M07 A3020 RMK AO2
KIZA 111315Z AUTO 00000KT 10SM BKN060 BKN070 OVC080 06/M08 A3020 RMK AO2
KIZA 111255Z AUTO 00000KT 10SM BKN080 05/M08 A3020 RMK AO2
KIZA 111235Z AUTO 00000KT 10SM BKN080 05/M07 A3020 RMK AO2
KIZA 111215Z AUTO 00000KT 10SM SCT080 05/M08 A3020 RMK AO2
KIZA 111155Z AUTO 00000KT 10SM SCT085 06/M08 A3020 RMK AO2
KIZA 111135Z AUTO 00000KT 7SM CLR 07/M09 A3020 RMK AO2
KIZA 111115Z AUTO 00000KT 10SM SCT050 04/M07 A3021 RMK AO2
KIZA 111055Z AUTO 00000KT 7SM BKN050 03/M06 A3021 RMK AO2
KIZA 111035Z AUTO 00000KT 7SM CLR 05/M07 A3020 RMK AO2
KIZA 111015Z AUTO 00000KT 7SM CLR 06/M07 A3020 RMK AO2
KIZA 110955Z AUTO 00000KT 10SM CLR 06/M08 A3020 RMK AO2
KIZA 110935Z AUTO 00000KT 10SM CLR 06/M07 A3020 RMK AO2
KIZA 110915Z AUTO 00000KT 10SM SCT060 07/M08 A3020 RMK AO2
KIZA 110855Z AUTO 00000KT 10SM SCT060 05/M07 A3020 RMK AO2
KIZA 110835Z AUTO 00000KT 7SM SCT060 06/M09 A3020 RMK AO2
KIZA 110815Z AUTO 00000KT 10SM SCT060 06/M08 A3020 RMK AO2
KIZA 110755Z AUTO 00000KT 7SM BKN050 06/M07 A3020 RMK AO2
KIZA 110735Z AUTO 00000KT 7SM CLR 06/M07 A3020 RMK AO2
KIZA 110715Z AUTO 00000KT 7SM CLR 07/M06 A3021 RMK AO2
KIZA 110655Z AUTO 00000KT 10SM CLR 10/M10 A3020 RMK AO2
KIZA 110635Z AUTO 00000KT 7SM CLR 08/M06 A3020 RMK AO2
KIZA 110615Z AUTO 00000KT 7SM CLR 08/M06 A3019 RMK AO2
KIZA 110555Z AUTO 00000KT 7SM CLR 08/M06 A3019 RMK AO2
KIZA 110535Z AUTO 00000KT 7SM CLR 08/M06 A3018 RMK AO2
KIZA 110515Z AUTO 00000KT 7SM CLR 10/M06 A3018 RMK AO2
KIZA 110455Z AUTO 00000KT 7SM CLR 09/M06 A3018 RMK AO2
KIZA 110435Z AUTO 00000KT 7SM CLR 09/M05 A3017 RMK AO2
KIZA 110415Z AUTO 00000KT 4SM HZ CLR 11/M08 A3016 RMK AO2
KIZA 110355Z AUTO 00000KT 7SM CLR 11/M08 A3016 RMK AO2
KIZA 110335Z AUTO 00000KT 7SM CLR 10/M05 A3015 RMK AO2
KIZA 110315Z AUTO 00000KT 7SM CLR 10/M05 A3015 RMK AO2
KIZA 110255Z AUTO 00000KT 7SM SCT055 SCT065 09/M02 A3015 RMK AO2
KIZA 110235Z AUTO 00000KT 7SM OVC055 12/M05 A3015 RMK AO2